Bayside, New York
Current Conditions -  °F | °C
As of 2:51 PM on Friday 24 Oct 2014 (Local Time) from KLGA Reporting Station
Overcast Overcast  
Wind Chill: 60°   Ceiling: 4500
Heat Index: 60°   Visibility: 10mi
Dew Point: 44°   Wind: 15mph
Humidity: 55%   Direction: 330°NNW
Pressure: 29.76"   Gusts: 21mph
Location:  40.77°N, 73.78°W
Report Text: KLGA 241851Z 33013G18KT 10SM OVC045 16/07 A2976 RMK AO2 SLP078 T01560067
Loading
Personal Weather Stations






























Interactive Weather Map
Tropical Storm Tracking
New forecast layout! Learn more

10-Day Weather Forecast

Advertisements
Track Severe Weather on mobile